Time;durP1;ratioP1;P1;durP2;ratioP2;P2;SDS_P1;SDS_P2;PMS_P1;PMS_P2;Temp;Humidity;BMP_temperature;BMP_pressure;BME280_temperature;BME280_humidity;BME280_pressure;Samples;Min_cycle;Max_cycle;Signal;HPM_P1;HPM_P2
2023/07/04 00:01:10;;;;;;;19.85;13.98;;;24.00;45.50;;;;;;6111495;23;114639;-78
2023/07/04 00:03:42;;;;;;;18.65;13.75;;;24.00;45.80;;;;;;6112104;23;114043;-78
2023/07/04 00:06:12;;;;;;;18.10;13.15;;;24.00;46.00;;;;;;6114852;23;114130;-78
2023/07/04 00:08:39;;;;;;;16.05;12.20;;;24.00;45.70;;;;;;6113229;23;115018;-79
2023/07/04 00:11:07;;;;;;;18.88;12.93;;;23.90;45.70;;;;;;6113870;23;114290;-78
2023/07/04 00:13:35;;;;;;;15.93;12.63;;;23.90;46.00;;;;;;6114708;23;114362;-78
2023/07/04 00:16:05;;;;;;;15.65;12.52;;;23.90;45.80;;;;;;6114582;22;114104;-78
2023/07/04 00:18:34;;;;;;;16.95;12.27;;;23.90;45.80;;;;;;6112015;23;116649;-78
2023/07/04 00:21:03;;;;;;;16.77;12.90;;;23.90;45.70;;;;;;6113534;23;115062;-78
2023/07/04 00:23:35;;;;;;;18.25;12.98;;;23.90;45.80;;;;;;6113774;22;114258;-79
2023/07/04 00:26:04;;;;;;;18.27;12.95;;;23.90;45.80;;;;;;6112932;23;114124;-79
2023/07/04 00:28:33;;;;;;;17.10;12.68;;;23.80;45.90;;;;;;6113294;23;114822;-79
2023/07/04 00:31:03;;;;;;;17.83;12.20;;;23.80;46.00;;;;;;6136600;22;114882;-79
2023/07/04 00:33:33;;;;;;;23.30;15.38;;;23.80;46.00;;;;;;6111801;23;114278;-79
2023/07/04 00:36:05;;;;;;;17.60;13.20;;;23.80;46.40;;;;;;6089184;23;114210;-79
2023/07/04 00:38:34;;;;;;;15.40;11.73;;;23.80;46.20;;;;;;6113304;23;115128;-79
2023/07/04 00:41:01;;;;;;;15.85;11.93;;;23.80;46.20;;;;;;6113146;23;114738;-79
2023/07/04 00:43:56;;;;;;;17.27;12.48;;;23.80;46.10;;;;;;6112138;23;114225;-79
2023/07/04 00:46:37;;;;;;;15.77;12.02;;;23.90;45.90;;;;;;6114006;23;114176;-78
2023/07/04 00:49:18;;;;;;;18.67;12.45;;;23.80;46.30;;;;;;6111638;23;114440;-78
2023/07/04 00:52:07;;;;;;;15.70;12.23;;;23.80;46.20;;;;;;6086707;23;117615;-78
2023/07/04 00:54:43;;;;;;;18.15;12.80;;;23.90;45.90;;;;;;6112163;23;114162;-78
2023/07/04 00:57:11;;;;;;;18.88;12.40;;;23.80;46.50;;;;;;6112344;23;114365;-77
2023/07/04 00:59:45;;;;;;;22.02;13.80;;;23.80;46.50;;;;;;6111811;22;115219;-77
2023/07/04 01:02:18;;;;;;;17.83;13.27;;;23.80;46.80;;;;;;6113033;22;114684;-78
2023/07/04 01:04:46;;;;;;;17.00;12.40;;;23.80;46.60;;;;;;6112215;22;114427;-77
2023/07/04 01:07:16;;;;;;;21.05;13.10;;;23.80;46.50;;;;;;6112513;22;114116;-79
2023/07/04 01:09:47;;;;;;;21.35;15.18;;;23.80;46.60;;;;;;6110648;23;115432;-78
2023/07/04 01:12:14;;;;;;;19.42;13.52;;;23.70;46.70;;;;;;6110880;23;115088;-80
2023/07/04 01:14:42;;;;;;;18.17;13.43;;;23.50;46.60;;;;;;6113803;23;114240;-77
2023/07/04 01:17:10;;;;;;;21.85;14.52;;;23.30;47.10;;;;;;6137128;22;114169;-77
2023/07/04 01:19:39;;;;;;;18.58;12.88;;;23.30;47.40;;;;;;6112306;23;116791;-78
2023/07/04 01:22:20;;;;;;;21.30;14.32;;;23.20;47.50;;;;;;6061616;23;116396;-78
2023/07/04 01:25:03;;;;;;;16.52;12.60;;;23.20;47.20;;;;;;6111910;23;114179;-78
2023/07/04 01:27:31;;;;;;;18.50;12.35;;;23.20;47.60;;;;;;6088326;23;114203;-78
2023/07/04 01:30:03;;;;;;;16.63;12.38;;;23.10;47.60;;;;;;6111006;23;114767;-78
2023/07/04 01:32:40;;;;;;;16.27;12.48;;;23.20;47.60;;;;;;6065785;23;114612;-78
2023/07/04 01:35:08;;;;;;;16.15;11.57;;;23.30;47.30;;;;;;6111102;23;114118;-79
2023/07/04 01:37:35;;;;;;;17.77;13.52;;;23.30;47.30;;;;;;6087399;23;114072;-78
2023/07/04 01:40:07;;;;;;;19.70;12.80;;;23.40;47.00;;;;;;6111028;23;114915;-79
2023/07/04 01:42:36;;;;;;;16.15;12.23;;;23.40;47.00;;;;;;6110445;23;118478;-79
2023/07/04 01:45:04;;;;;;;18.05;12.80;;;23.40;47.20;;;;;;6087728;23;114143;-79
2023/07/04 01:47:32;;;;;;;20.02;14.30;;;23.50;46.90;;;;;;6114542;23;114275;-79
2023/07/04 01:49:59;;;;;;;19.33;13.02;;;23.50;46.70;;;;;;6113390;23;115004;-78
2023/07/04 01:52:27;;;;;;;17.83;12.75;;;23.50;46.80;;;;;;6111902;23;118531;-78
2023/07/04 01:54:55;;;;;;;16.77;12.80;;;23.50;46.80;;;;;;6112922;23;114336;-79
2023/07/04 01:57:22;;;;;;;19.65;12.90;;;23.50;46.70;;;;;;6114631;23;114313;-79
2023/07/04 01:59:50;;;;;;;17.30;12.90;;;23.50;46.80;;;;;;6111184;23;114953;-78
2023/07/04 02:02:18;;;;;;;16.23;12.55;;;23.50;46.80;;;;;;6111839;23;114564;-78
2023/07/04 02:04:45;;;;;;;17.85;13.00;;;23.60;46.80;;;;;;6137483;22;114217;-78
2023/07/04 02:07:12;;;;;;;15.85;11.60;;;23.60;46.80;;;;;;6112955;23;114127;-78
2023/07/04 02:09:41;;;;;;;15.50;11.75;;;23.60;46.90;;;;;;6113505;23;115120;-78
2023/07/04 02:12:09;;;;;;;17.30;12.88;;;23.60;46.80;;;;;;6111559;23;115022;-77
2023/07/04 02:14:36;;;;;;;16.58;12.10;;;23.60;46.80;;;;;;6112710;23;114487;-80
2023/07/04 02:17:03;;;;;;;16.98;12.15;;;23.60;46.80;;;;;;6113287;23;114140;-77
2023/07/04 02:19:31;;;;;;;18.45;12.40;;;23.70;46.80;;;;;;6112954;23;114877;-79
2023/07/04 02:21:58;;;;;;;19.30;13.60;;;23.70;46.60;;;;;;6112848;23;116411;-77
2023/07/04 02:24:25;;;;;;;16.65;12.82;;;23.70;46.70;;;;;;6113586;23;114097;-78
2023/07/04 02:26:52;;;;;;;16.75;12.25;;;23.60;46.70;;;;;;6137630;22;114166;-79
2023/07/04 02:29:20;;;;;;;16.48;12.10;;;23.60;46.80;;;;;;6113070;23;114851;-78
2023/07/04 02:31:49;;;;;;;18.63;12.90;;;23.60;46.90;;;;;;6136390;22;115198;-78
2023/07/04 02:34:16;;;;;;;16.67;12.63;;;23.60;46.80;;;;;;6136715;22;114094;-77
2023/07/04 02:36:43;;;;;;;15.18;11.82;;;23.60;46.90;;;;;;6137880;22;114067;-77
2023/07/04 02:39:10;;;;;;;16.63;11.55;;;23.60;46.60;;;;;;6111308;23;114864;-78
2023/07/04 02:41:37;;;;;;;16.95;12.63;;;23.60;46.80;;;;;;6136726;22;114610;-78
2023/07/04 02:44:05;;;;;;;16.50;12.32;;;23.70;46.80;;;;;;6137506;22;114085;-78
2023/07/04 02:46:32;;;;;;;20.17;13.68;;;23.60;46.50;;;;;;6137433;22;114344;-78
2023/07/04 02:49:05;;;;;;;16.00;11.93;;;23.60;46.40;;;;;;6135776;22;116155;-78
2023/07/04 02:51:35;;;;;;;17.15;13.20;;;23.50;47.00;;;;;;6086851;23;114623;-78
2023/07/04 02:54:02;;;;;;;17.85;12.32;;;23.50;47.00;;;;;;6137301;22;114236;-79
2023/07/04 02:56:32;;;;;;;19.77;12.90;;;23.50;47.10;;;;;;6137294;22;114392;-78
2023/07/04 02:58:59;;;;;;;15.85;12.15;;;23.50;47.10;;;;;;6112031;23;115449;-79
2023/07/04 03:01:26;;;;;;;15.32;11.20;;;23.50;47.20;;;;;;6113500;23;114678;-79
2023/07/04 03:03:54;;;;;;;20.58;12.88;;;23.40;47.20;;;;;;6113274;22;114132;-76
2023/07/04 03:06:25;;;;;;;18.20;13.10;;;23.50;47.00;;;;;;6137961;22;114097;-78
2023/07/04 03:08:56;;;;;;;17.80;12.90;;;23.40;47.00;;;;;;6111966;23;115034;-78
2023/07/04 03:11:23;;;;;;;15.35;12.00;;;23.40;46.90;;;;;;6112451;23;114584;-79
2023/07/04 03:13:50;;;;;;;17.63;12.70;;;23.30;47.30;;;;;;6112868;23;114649;-78
2023/07/04 03:16:18;;;;;;;17.95;12.07;;;23.30;47.30;;;;;;6114390;22;114168;-78
2023/07/04 03:18:46;;;;;;;16.00;11.75;;;23.40;47.30;;;;;;6112125;23;114046;-78
2023/07/04 03:21:14;;;;;;;16.35;12.10;;;23.40;46.80;;;;;;6087492;23;117008;-78
2023/07/04 03:23:41;;;;;;;14.45;11.15;;;23.30;47.10;;;;;;6138275;22;114193;-78
2023/07/04 03:26:09;;;;;;;16.85;12.60;;;23.30;46.90;;;;;;6113041;23;114232;-78
2023/07/04 03:28:37;;;;;;;14.38;11.43;;;23.40;46.80;;;;;;6112566;23;115439;-78
2023/07/04 03:31:05;;;;;;;14.82;10.85;;;23.40;47.10;;;;;;6113042;23;117707;-78
2023/07/04 03:33:32;;;;;;;15.80;11.23;;;23.50;46.80;;;;;;6137472;22;114057;-78
2023/07/04 03:35:59;;;;;;;15.07;11.45;;;23.50;47.10;;;;;;6112933;23;114037;-78
2023/07/04 03:38:29;;;;;;;14.90;11.57;;;23.50;46.40;;;;;;6111427;23;115473;-76
2023/07/04 03:40:58;;;;;;;16.27;11.95;;;23.50;46.90;;;;;;6113520;22;114537;-78
2023/07/04 03:43:26;;;;;;;15.15;11.10;;;23.50;46.90;;;;;;6113744;22;114229;-78
2023/07/04 03:45:54;;;;;;;17.65;12.38;;;23.50;47.10;;;;;;6112953;23;114086;-77
2023/07/04 03:48:24;;;;;;;17.60;12.68;;;23.60;46.70;;;;;;6136713;22;115232;-78
2023/07/04 03:50:51;;;;;;;16.48;11.68;;;23.50;46.60;;;;;;6113327;22;114981;-78
2023/07/04 03:53:19;;;;;;;15.75;11.10;;;23.60;46.10;;;;;;6112723;23;114340;-78
2023/07/04 03:55:49;;;;;;;14.00;10.63;;;23.70;46.00;;;;;;6114610;23;114134;-78
2023/07/04 03:58:19;;;;;;;14.52;11.32;;;23.70;46.50;;;;;;6112909;23;114905;-78
2023/07/04 04:00:47;;;;;;;15.73;11.23;;;23.70;46.00;;;;;;6113072;23;115375;-78
2023/07/04 04:03:14;;;;;;;15.32;11.30;;;23.70;45.50;;;;;;6112659;23;114371;-79
2023/07/04 04:05:42;;;;;;;14.73;10.63;;;23.70;45.70;;;;;;6088220;23;114305;-79
2023/07/04 04:08:09;;;;;;;18.05;12.07;;;23.80;46.10;;;;;;6113428;23;115321;-78
2023/07/04 04:10:36;;;;;;;20.13;12.02;;;23.90;45.00;;;;;;6111975;23;115019;-78
2023/07/04 04:13:04;;;;;;;15.40;10.93;;;24.10;44.60;;;;;;6137149;22;114453;-78
2023/07/04 04:15:31;;;;;;;19.05;11.32;;;24.20;44.90;;;;;;6112591;23;114068;-78
2023/07/04 04:17:59;;;;;;;16.58;11.27;;;24.30;44.80;;;;;;6113493;23;114816;-78
2023/07/04 04:20:27;;;;;;;18.10;10.85;;;24.50;44.70;;;;;;6114072;23;114480;-78
2023/07/04 04:23:00;;;;;;;17.45;12.25;;;24.70;44.20;;;;;;6137352;22;114422;-79
2023/07/04 04:25:37;;;;;;;15.85;11.95;;;24.70;44.30;;;;;;6114166;23;114868;-78
2023/07/04 04:28:05;;;;;;;16.55;11.73;;;24.80;43.90;;;;;;6112039;22;114836;-78
2023/07/04 04:30:33;;;;;;;17.65;12.02;;;24.80;43.50;;;;;;6110929;23;114957;-78
2023/07/04 04:33:02;;;;;;;18.50;11.88;;;24.90;43.60;;;;;;6112367;23;114552;-78
2023/07/04 04:35:30;;;;;;;18.38;11.40;;;25.00;43.30;;;;;;6112131;23;114393;-78
2023/07/04 04:37:58;;;;;;;19.52;10.63;;;25.00;42.60;;;;;;6112788;23;114892;-78
2023/07/04 04:40:25;;;;;;;17.83;10.88;;;25.10;41.90;;;;;;6110753;23;116593;-78
2023/07/04 04:42:55;;;;;;;15.50;9.77;;;25.00;41.70;;;;;;6112183;23;114303;-78
2023/07/04 04:45:25;;;;;;;17.23;10.80;;;25.00;42.00;;;;;;6112014;23;114373;-78
2023/07/04 04:47:52;;;;;;;19.17;10.82;;;25.00;41.70;;;;;;6110612;23;115329;-78
2023/07/04 04:50:24;;;;;;;21.90;11.25;;;25.00;41.60;;;;;;6112657;22;114522;-79
2023/07/04 04:52:52;;;;;;;17.38;10.90;;;25.00;41.40;;;;;;6087414;23;114132;-78
2023/07/04 04:55:19;;;;;;;18.35;10.60;;;25.10;41.30;;;;;;6112159;23;114328;-79
2023/07/04 04:57:46;;;;;;;16.33;9.60;;;25.10;41.70;;;;;;6112190;23;114694;-79
2023/07/04 05:00:16;;;;;;;16.17;9.95;;;25.20;41.00;;;;;;6112489;23;114804;-79
2023/07/04 05:02:44;;;;;;;17.45;10.52;;;25.30;41.40;;;;;;6113251;23;114649;-78
2023/07/04 05:05:15;;;;;;;16.40;10.00;;;25.30;41.00;;;;;;6111637;23;114390;-78
2023/07/04 05:07:42;;;;;;;16.30;9.45;;;25.40;40.60;;;;;;6110716;23;114851;-78
2023/07/04 05:10:12;;;;;;;17.15;9.65;;;25.50;39.80;;;;;;6111281;23;114623;-79
2023/07/04 05:12:41;;;;;;;14.57;9.68;;;25.70;40.00;;;;;;6087636;23;114594;-78
2023/07/04 05:15:08;;;;;;;15.18;10.07;;;25.80;40.00;;;;;;6086689;23;114247;-79
2023/07/04 05:17:36;;;;;;;17.58;9.82;;;25.80;39.50;;;;;;6111807;23;114955;-79
2023/07/04 05:20:05;;;;;;;16.20;10.45;;;25.80;40.20;;;;;;6112705;23;114686;-79
2023/07/04 05:22:33;;;;;;;16.10;10.10;;;25.80;39.70;;;;;;6089158;23;114370;-79
2023/07/04 05:25:00;;;;;;;18.05;9.75;;;25.80;39.90;;;;;;6113535;23;114304;-79
2023/07/04 05:27:27;;;;;;;18.50;10.55;;;25.80;40.00;;;;;;6113878;23;114837;-79
2023/07/04 05:29:54;;;;;;;15.02;9.40;;;25.70;40.30;;;;;;6113997;23;114575;-78
2023/07/04 05:32:21;;;;;;;15.30;10.00;;;25.70;40.40;;;;;;6114965;23;114186;-78
2023/07/04 05:34:49;;;;;;;14.80;9.75;;;25.80;40.50;;;;;;6114982;23;114304;-77
2023/07/04 05:37:16;;;;;;;14.82;9.88;;;25.90;40.40;;;;;;6113416;23;114838;-79
2023/07/04 05:39:44;;;;;;;14.82;9.90;;;26.10;40.30;;;;;;6113542;23;114643;-78
2023/07/04 05:42:11;;;;;;;14.27;10.82;;;26.20;40.20;;;;;;6112683;23;114260;-78
2023/07/04 05:44:39;;;;;;;15.57;10.15;;;26.30;40.00;;;;;;6114660;23;114129;-78
2023/07/04 05:47:06;;;;;;;15.85;10.73;;;26.40;40.00;;;;;;6111663;23;114893;-78
2023/07/04 05:49:33;;;;;;;14.32;10.05;;;26.50;40.00;;;;;;6113444;23;114707;-78
2023/07/04 05:52:01;;;;;;;14.02;9.43;;;26.60;40.50;;;;;;6112667;23;114333;-78
2023/07/04 05:54:30;;;;;;;19.92;11.80;;;26.80;40.20;;;;;;6112313;22;114388;-78
2023/07/04 05:56:58;;;;;;;17.35;10.07;;;26.90;39.80;;;;;;6113603;23;115680;-78
2023/07/04 05:59:26;;;;;;;17.42;11.05;;;27.00;40.20;;;;;;6112751;23;114468;-79
2023/07/04 06:01:53;;;;;;;15.30;10.43;;;27.20;39.90;;;;;;6114593;23;113979;-78
2023/07/04 06:04:20;;;;;;;16.80;10.75;;;27.30;39.20;;;;;;6088198;23;114204;-78
2023/07/04 06:06:52;;;;;;;20.20;11.25;;;27.40;39.50;;;;;;6112473;23;115515;-79
2023/07/04 06:09:20;;;;;;;18.42;10.63;;;27.60;38.80;;;;;;6113139;23;116583;-79
2023/07/04 06:11:48;;;;;;;15.10;10.27;;;27.70;38.50;;;;;;6115619;22;114254;-78
2023/07/04 06:14:24;;;;;;;13.15;9.55;;;27.60;38.50;;;;;;6115220;22;114339;-78
2023/07/04 06:16:52;;;;;;;13.35;9.77;;;27.80;38.10;;;;;;6111743;23;114827;-79
2023/07/04 06:19:19;;;;;;;14.40;9.48;;;27.90;37.40;;;;;;6112205;23;114460;-78
2023/07/04 06:21:46;;;;;;;12.77;9.40;;;28.00;37.00;;;;;;6114982;23;114091;-79
2023/07/04 06:24:15;;;;;;;12.13;9.07;;;28.20;36.60;;;;;;6115153;23;114063;-78
2023/07/04 06:26:42;;;;;;;12.93;8.93;;;28.30;36.20;;;;;;6112852;23;115117;-80
2023/07/04 06:29:09;;;;;;;15.27;9.20;;;28.40;35.80;;;;;;6136438;22;115964;-78
2023/07/04 06:31:36;;;;;;;11.43;8.05;;;28.50;35.00;;;;;;6113058;23;114232;-77
2023/07/04 06:34:07;;;;;;;13.20;8.50;;;28.50;34.50;;;;;;6112425;23;114120;-79
2023/07/04 06:36:34;;;;;;;12.93;8.13;;;28.60;34.60;;;;;;6111971;23;114769;-79
2023/07/04 06:39:01;;;;;;;11.73;6.55;;;28.60;34.70;;;;;;6113527;23;114974;-78
2023/07/04 06:41:29;;;;;;;12.02;7.10;;;28.70;33.00;;;;;;6114377;23;114146;-79
2023/07/04 06:43:56;;;;;;;12.38;7.63;;;28.60;33.20;;;;;;6112296;23;114316;-78
2023/07/04 06:46:23;;;;;;;12.55;6.28;;;28.60;33.50;;;;;;6112797;23;115515;-77
2023/07/04 06:48:51;;;;;;;12.48;6.10;;;28.60;32.80;;;;;;6111927;23;115812;-78
2023/07/04 06:51:19;;;;;;;9.75;5.90;;;28.70;31.90;;;;;;6114376;23;114257;-78
2023/07/04 06:53:46;;;;;;;9.40;5.22;;;28.80;31.80;;;;;;6114472;23;114171;-78
2023/07/04 06:56:20;;;;;;;8.38;4.72;;;28.80;31.30;;;;;;6111584;23;115577;-79
2023/07/04 06:58:49;;;;;;;9.27;4.80;;;28.90;30.50;;;;;;6112951;23;114565;-79
2023/07/04 07:01:17;;;;;;;7.30;4.20;;;29.00;30.20;;;;;;6112576;23;114331;-79
2023/07/04 07:03:44;;;;;;;7.13;4.03;;;29.00;29.70;;;;;;6114350;22;114075;-79
2023/07/04 07:06:12;;;;;;;8.45;4.70;;;28.90;29.60;;;;;;6111610;23;114922;-78
2023/07/04 07:08:40;;;;;;;9.85;4.50;;;28.90;29.50;;;;;;6111763;23;114477;-78
2023/07/04 07:11:14;;;;;;;9.63;5.20;;;28.90;30.40;;;;;;6112805;23;114176;-79
2023/07/04 07:13:41;;;;;;;8.60;4.28;;;28.90;30.70;;;;;;6112938;23;114027;-78
2023/07/04 07:16:12;;;;;;;7.80;4.57;;;28.90;30.10;;;;;;6111628;23;114757;-79
2023/07/04 07:18:41;;;;;;;7.45;5.05;;;28.90;30.30;;;;;;6113461;23;114620;-78
2023/07/04 07:21:10;;;;;;;8.07;4.80;;;28.90;30.30;;;;;;6113915;23;113990;-79
2023/07/04 07:23:38;;;;;;;8.93;4.57;;;28.90;30.20;;;;;;6112685;23;114406;-79
2023/07/04 07:26:06;;;;;;;9.45;4.68;;;28.90;30.00;;;;;;6113471;23;115094;-78
2023/07/04 07:28:38;;;;;;;7.53;4.22;;;28.90;30.40;;;;;;6113442;23;114679;-79
2023/07/04 07:31:10;;;;;;;6.78;4.20;;;29.00;30.50;;;;;;6113219;23;114304;-79
2023/07/04 07:33:40;;;;;;;6.18;3.20;;;29.00;30.30;;;;;;6114153;23;114377;-78
2023/07/04 07:36:15;;;;;;;6.50;3.78;;;28.90;29.70;;;;;;6111814;23;115031;-78
2023/07/04 07:38:42;;;;;;;4.55;2.80;;;28.80;29.20;;;;;;6114084;23;114599;-78
2023/07/04 07:41:09;;;;;;;5.30;3.58;;;28.80;29.30;;;;;;6113098;23;114320;-78
2023/07/04 07:43:38;;;;;;;4.97;3.00;;;28.70;29.50;;;;;;6112442;23;114224;-79
2023/07/04 07:46:12;;;;;;;4.63;2.60;;;28.70;29.70;;;;;;6136277;22;114983;-78
2023/07/04 07:48:39;;;;;;;3.72;2.45;;;28.70;29.40;;;;;;6111468;23;115124;-78
2023/07/04 07:51:07;;;;;;;4.85;2.58;;;28.70;29.40;;;;;;6112514;23;114504;-79
2023/07/04 07:53:36;;;;;;;4.72;2.92;;;28.80;29.60;;;;;;6088533;23;114165;-78
2023/07/04 07:56:04;;;;;;;5.00;3.33;;;28.70;29.70;;;;;;6112826;23;115054;-78
2023/07/04 07:58:32;;;;;;;4.30;2.85;;;28.70;29.80;;;;;;6113166;23;114627;-79
2023/07/04 08:00:59;;;;;;;7.20;3.13;;;28.80;29.50;;;;;;6114270;23;114460;-77
2023/07/04 08:03:27;;;;;;;4.47;2.50;;;28.70;30.00;;;;;;6114456;23;114055;-79
2023/07/04 08:05:54;;;;;;;4.60;2.80;;;28.70;30.20;;;;;;6111107;23;114782;-78
2023/07/04 08:08:21;;;;;;;6.10;2.65;;;28.70;30.60;;;;;;6113014;23;114860;-78
2023/07/04 08:10:49;;;;;;;3.88;2.33;;;28.60;30.10;;;;;;6112100;23;114455;-78
2023/07/04 08:13:18;;;;;;;6.10;1.90;;;28.70;29.90;;;;;;6114284;23;114132;-79
2023/07/04 08:15:52;;;;;;;5.05;2.40;;;28.70;30.00;;;;;;6113103;22;114968;-79
2023/07/04 08:18:19;;;;;;;3.95;2.20;;;28.70;29.80;;;;;;6112977;23;114623;-79
2023/07/04 08:21:03;;;;;;;4.50;2.10;;;28.60;30.00;;;;;;6112547;23;114378;-79
2023/07/04 08:23:30;;;;;;;3.63;1.75;;;28.60;30.20;;;;;;6112378;23;114191;-79
2023/07/04 08:25:57;;;;;;;4.30;2.10;;;28.50;30.20;;;;;;6111765;23;115904;-79
2023/07/04 08:28:26;;;;;;;4.38;2.30;;;28.50;30.20;;;;;;6113409;22;115615;-77
2023/07/04 08:30:56;;;;;;;4.15;2.17;;;28.40;30.00;;;;;;6113710;23;114139;-78
2023/07/04 08:33:25;;;;;;;5.38;1.98;;;28.40;30.40;;;;;;6111369;23;114212;-78
2023/07/04 08:36:00;;;;;;;4.63;2.05;;;28.40;30.80;;;;;;6110171;23;114922;-79
2023/07/04 08:38:27;;;;;;;3.80;2.38;;;28.40;30.20;;;;;;6112391;23;114504;-80
2023/07/04 08:40:55;;;;;;;4.18;2.30;;;28.40;30.60;;;;;;6113181;23;114177;-78
2023/07/04 08:43:41;;;;;;;4.43;2.28;;;28.40;30.60;;;;;;6113268;23;114306;-78
2023/07/04 08:46:09;;;;;;;3.80;2.10;;;28.50;30.80;;;;;;6110713;23;114862;-77
2023/07/04 08:48:36;;;;;;;6.68;2.40;;;28.50;30.80;;;;;;6110796;23;114515;-78
2023/07/04 08:51:04;;;;;;;4.07;2.13;;;28.60;30.20;;;;;;6111711;23;114558;-78
2023/07/04 08:53:31;;;;;;;5.60;2.40;;;28.60;30.50;;;;;;6112139;23;114393;-79
2023/07/04 08:56:08;;;;;;;4.50;2.60;;;28.60;30.20;;;;;;6109818;23;114869;-79
2023/07/04 08:58:44;;;;;;;4.55;1.92;;;28.70;30.50;;;;;;6110468;23;117411;-79
2023/07/04 09:01:21;;;;;;;4.53;2.38;;;28.70;30.50;;;;;;6111062;23;114613;-78
2023/07/04 09:04:04;;;;;;;4.38;2.20;;;28.60;30.40;;;;;;6111744;23;114455;-79
2023/07/04 09:06:43;;;;;;;3.85;2.38;;;28.60;30.30;;;;;;6110670;22;114781;-79
2023/07/04 09:09:17;;;;;;;4.78;2.33;;;28.70;30.50;;;;;;6110778;23;115866;-78
2023/07/04 09:11:44;;;;;;;4.00;2.75;;;28.80;30.40;;;;;;6112015;23;114890;-77
2023/07/04 09:14:22;;;;;;;5.32;2.65;;;28.80;30.40;;;;;;6111799;23;114093;-78
2023/07/04 09:16:51;;;;;;;4.57;2.38;;;28.80;30.20;;;;;;6111132;23;115000;-78
2023/07/04 09:19:19;;;;;;;6.07;2.20;;;28.80;30.30;;;;;;6111392;23;114633;-78
2023/07/04 09:21:46;;;;;;;4.95;2.45;;;28.90;30.30;;;;;;6087978;23;114195;-77
2023/07/04 09:24:14;;;;;;;4.32;2.13;;;28.80;30.70;;;;;;6112231;23;114184;-78
2023/07/04 09:26:44;;;;;;;7.72;2.72;;;28.80;30.80;;;;;;6134961;22;116054;-78
2023/07/04 09:29:16;;;;;;;4.82;2.30;;;28.80;30.50;;;;;;6111978;22;115092;-80
2023/07/04 09:31:47;;;;;;;4.20;2.20;;;28.90;30.60;;;;;;6111765;23;114041;-79
2023/07/04 09:34:33;;;;;;;5.75;2.38;;;28.80;30.10;;;;;;6087271;23;114212;-78
2023/07/04 09:37:03;;;;;;;3.97;2.30;;;28.90;30.50;;;;;;6110235;23;116244;-79
2023/07/04 09:39:55;;;;;;;4.15;2.22;;;28.90;30.20;;;;;;6110158;23;114551;-78
2023/07/04 09:42:25;;;;;;;5.20;2.92;;;29.00;30.60;;;;;;6105369;23;114088;-78
2023/07/04 09:45:12;;;;;;;4.75;2.50;;;28.90;30.60;;;;;;6091084;23;114484;-79
2023/07/04 09:47:44;;;;;;;4.65;2.67;;;29.00;30.40;;;;;;6111692;23;115027;-79
2023/07/04 09:50:24;;;;;;;4.78;2.60;;;29.00;30.50;;;;;;6085530;23;115266;-79
2023/07/04 09:53:11;;;;;;;4.22;2.58;;;29.10;30.60;;;;;;6112339;23;114315;-78
2023/07/04 09:55:39;;;;;;;4.55;2.50;;;29.10;30.30;;;;;;6111085;23;114273;-77
2023/07/04 09:58:21;;;;;;;5.30;2.25;;;29.10;30.90;;;;;;6110203;22;115434;-77
2023/07/04 10:01:09;;;;;;;4.63;2.35;;;29.00;30.80;;;;;;6085668;23;118379;-78
2023/07/04 10:03:38;;;;;;;4.03;2.00;;;29.00;30.70;;;;;;6112525;23;114189;-79
2023/07/04 10:06:06;;;;;;;4.55;2.20;;;29.00;30.00;;;;;;6112661;23;114093;-78
2023/07/04 10:08:55;;;;;;;3.90;2.00;;;29.00;30.20;;;;;;6111204;23;118834;-79
2023/07/04 10:11:29;;;;;;;4.70;2.22;;;29.10;30.30;;;;;;6113096;23;114567;-78
2023/07/04 10:14:15;;;;;;;4.97;1.85;;;29.10;30.40;;;;;;6112498;23;114163;-77
2023/07/04 10:16:50;;;;;;;4.05;2.10;;;29.00;30.40;;;;;;6112375;23;114456;-78
2023/07/04 10:19:23;;;;;;;3.97;1.83;;;29.00;30.60;;;;;;6112300;22;114802;-78
2023/07/04 10:21:51;;;;;;;4.03;2.35;;;29.00;30.30;;;;;;6111525;23;114680;-78
2023/07/04 10:24:22;;;;;;;4.78;2.25;;;29.00;30.60;;;;;;6112562;23;114420;-77
2023/07/04 10:27:00;;;;;;;3.88;1.80;;;29.00;30.30;;;;;;6114110;22;114156;-79
2023/07/04 10:29:32;;;;;;;5.22;2.33;;;29.00;30.70;;;;;;6111609;23;115440;-78
2023/07/04 10:32:03;;;;;;;3.92;2.13;;;29.00;30.60;;;;;;6111638;23;115086;-79
2023/07/04 10:34:30;;;;;;;4.85;1.80;;;29.00;30.00;;;;;;6111258;23;114224;-78
2023/07/04 10:36:57;;;;;;;3.53;1.90;;;28.90;30.50;;;;;;6112668;22;114299;-78
2023/07/04 10:39:24;;;;;;;5.72;2.20;;;28.90;30.30;;;;;;6086685;23;117552;-79
2023/07/04 10:42:07;;;;;;;4.30;2.00;;;28.90;30.80;;;;;;6111561;23;114704;-78
2023/07/04 10:44:34;;;;;;;3.65;2.17;;;28.90;30.70;;;;;;6111984;23;114199;-79
2023/07/04 10:47:05;;;;;;;3.85;1.92;;;28.80;30.80;;;;;;6112621;22;114328;-79
2023/07/04 10:49:39;;;;;;;4.07;2.00;;;28.90;30.20;;;;;;6111489;23;114897;-78
2023/07/04 10:52:09;;;;;;;4.47;2.30;;;28.80;30.50;;;;;;6111307;23;115271;-78
2023/07/04 10:54:36;;;;;;;4.32;2.63;;;28.80;30.70;;;;;;6112267;23;114637;-77
2023/07/04 10:57:20;;;;;;;4.35;2.15;;;28.90;30.10;;;;;;6137546;22;114272;-78
2023/07/04 10:59:47;;;;;;;4.05;2.22;;;28.90;30.60;;;;;;6111378;23;114930;-79
2023/07/04 11:02:17;;;;;;;4.82;2.45;;;28.80;30.20;;;;;;6087047;23;116083;-79
2023/07/04 11:04:44;;;;;;;4.53;2.28;;;28.80;30.00;;;;;;6113710;23;114232;-78
2023/07/04 11:07:21;;;;;;;6.25;2.30;;;28.90;30.60;;;;;;6112448;23;114310;-79
2023/07/04 11:09:51;;;;;;;4.95;2.63;;;28.90;29.90;;;;;;6110912;23;114740;-79
2023/07/04 11:12:19;;;;;;;6.28;2.83;;;28.90;30.50;;;;;;6111412;23;114715;-78
2023/07/04 11:14:48;;;;;;;4.20;2.60;;;29.10;30.10;;;;;;6112875;23;114330;-78
2023/07/04 11:17:20;;;;;;;6.80;3.22;;;29.10;30.00;;;;;;6112240;23;114183;-78
2023/07/04 11:19:57;;;;;;;4.20;2.70;;;29.20;29.90;;;;;;6110724;23;114713;-78
2023/07/04 11:22:46;;;;;;;5.78;3.30;;;29.20;29.90;;;;;;6086180;23;116195;-78
2023/07/04 11:25:53;;;;;;;5.00;2.42;;;29.30;30.40;;;;;;6113596;22;114205;-78
2023/07/04 11:28:26;;;;;;;5.80;2.75;;;29.20;30.00;;;;;;6112376;23;114849;-78
2023/07/04 11:31:27;;;;;;;5.20;2.92;;;29.30;30.00;;;;;;6111024;23;114980;-78
2023/07/04 11:33:58;;;;;;;5.95;2.88;;;29.30;29.70;;;;;;6115368;22;115820;-79
2023/07/04 11:36:26;;;;;;;7.20;2.92;;;29.30;30.00;;;;;;6112969;23;114439;-80
2023/07/04 11:39:08;;;;;;;5.60;3.03;;;29.30;30.60;;;;;;6113736;22;114220;-79
2023/07/04 11:41:38;;;;;;;5.82;2.80;;;29.30;30.40;;;;;;6089396;23;114763;-79
2023/07/04 11:44:15;;;;;;;6.95;3.03;;;29.30;30.00;;;;;;6111065;23;115828;-78
2023/07/04 11:46:43;;;;;;;10.38;3.22;;;29.40;29.60;;;;;;6113626;23;114186;-79
2023/07/04 11:49:18;;;;;;;4.85;2.42;;;29.30;29.90;;;;;;6112225;23;114286;-79
2023/07/04 11:51:46;;;;;;;5.93;3.22;;;29.30;29.50;;;;;;6086781;23;116056;-78
2023/07/04 11:54:13;;;;;;;4.60;2.65;;;29.20;29.40;;;;;;6113027;23;114608;-79
2023/07/04 11:56:43;;;;;;;5.47;2.78;;;29.20;29.50;;;;;;6113493;23;114532;-79
2023/07/04 11:59:20;;;;;;;8.50;2.50;;;29.20;29.50;;;;;;6113939;23;114340;-79
2023/07/04 12:01:51;;;;;;;5.05;2.67;;;29.20;29.50;;;;;;6109771;23;117442;-77
2023/07/04 12:04:46;;;;;;;5.25;2.47;;;29.10;29.60;;;;;;6112379;23;115263;-78
2023/07/04 12:07:42;;;;;;;;;;;29.20;29.70;;;;;;6111585;23;113896;-79
2023/07/04 12:10:19;;;;;;;6.20;2.78;;;29.10;30.40;;;;;;6094527;22;114352;-79
2023/07/04 12:13:00;;;;;;;8.95;3.08;;;29.20;29.80;;;;;;6086675;23;114887;-78
2023/07/04 12:15:29;;;;;;;6.68;3.05;;;29.30;29.40;;;;;;6063071;23;116250;-79
2023/07/04 12:17:58;;;;;;;5.32;2.38;;;29.30;29.20;;;;;;6136682;22;114068;-77
2023/07/04 12:20:30;;;;;;;5.55;2.72;;;29.30;29.10;;;;;;6112550;23;114924;-78
2023/07/04 12:23:02;;;;;;;4.40;2.45;;;29.30;29.20;;;;;;6110858;23;114967;-78
2023/07/04 12:25:40;;;;;;;4.85;2.58;;;29.20;28.70;;;;;;6112297;23;115014;-79
2023/07/04 12:28:11;;;;;;;5.32;2.80;;;29.20;29.20;;;;;;6112768;23;113990;-79
2023/07/04 12:30:39;;;;;;;6.95;2.33;;;29.10;29.30;;;;;;6135961;22;113963;-79
2023/07/04 12:33:17;;;;;;;89.57;11.38;;;29.20;29.20;;;;;;6110338;23;117787;-78
2023/07/04 12:35:52;;;;;;;42.78;7.45;;;29.20;29.60;;;;;;6110827;23;114635;-77
2023/07/04 12:38:23;;;;;;;9.52;2.90;;;29.30;29.20;;;;;;6088486;23;114096;-79
2023/07/04 12:40:54;;;;;;;16.23;3.10;;;29.30;29.10;;;;;;6112011;23;114136;-79
2023/07/04 12:43:27;;;;;;;10.90;4.05;;;29.40;29.40;;;;;;6110632;23;115175;-79
2023/07/04 12:46:11;;;;;;;5.82;2.20;;;29.40;29.00;;;;;;6111262;23;115067;-78